Time;durP1;ratioP1;P1;durP2;ratioP2;P2;SDS_P1;SDS_P2;PMS_P1;PMS_P2;Temp;Humidity;BMP_temperature;BMP_pressure;BME280_temperature;BME280_humidity;BME280_pressure;Samples;Min_cycle;Max_cycle;Signal;HPM_P1;HPM_P2
2022/11/06 00:02:16;;;;;;;;;9.25;8.75;;;;;11.44;72.19;101043.94;5077198;28;47198;-59
2022/11/06 00:04:42;;;;;;;;;8.75;8.75;;;;;11.38;71.65;101028.28;5076950;28;45463;-60
2022/11/06 00:07:07;;;;;;;;;9.25;7.75;;;;;11.43;71.94;101028.91;5074399;28;45442;-61
2022/11/06 00:09:33;;;;;;;;;8.25;8.00;;;;;11.39;72.24;101028.22;5056927;28;45171;-60
2022/11/06 00:11:59;;;;;;;;;9.75;9.00;;;;;11.26;71.94;101004.97;5056781;28;45244;-59
2022/11/06 00:14:24;;;;;;;;;12.50;9.00;;;;;11.38;72.08;101033.63;5056515;28;45189;-59
2022/11/06 00:16:49;;;;;;;;;11.00;10.25;;;;;11.36;72.32;101033.72;5038247;28;45292;-60
2022/11/06 00:19:17;;;;;;;;;11.75;7.75;;;;;11.25;71.89;101011.25;5056371;28;45456;-60
2022/11/06 00:21:43;;;;;;;;;11.25;9.25;;;;;11.36;72.16;101032.84;5060488;28;46642;-60
2022/11/06 00:24:11;;;;;;;;;12.25;8.25;;;;;11.35;71.98;101039.97;5076183;28;45545;-60
2022/11/06 00:26:36;;;;;;;;;9.75;9.00;;;;;11.38;71.90;101044.28;5073331;28;45550;-62
2022/11/06 00:29:03;;;;;;;;;12.00;7.25;;;;;11.37;71.87;101039.88;5056214;28;45548;-64
2022/11/06 00:31:31;;;;;;;;;6.67;6.67;;;;;11.31;71.80;101029.53;5055552;28;46480;-60
2022/11/06 00:33:58;;;;;;;;;13.00;8.00;;;;;11.28;71.74;101029.72;5055766;28;45405;-59
2022/11/06 00:36:25;;;;;;;;;7.50;6.75;;;;;11.34;71.95;101053.38;5057136;28;45371;-60
2022/11/06 00:38:53;;;;;;;;;9.75;9.00;;;;;11.29;71.96;101036.75;5062296;28;45662;-58
2022/11/06 00:41:19;;;;;;;;;11.75;9.75;;;;;11.32;71.53;101028.59;5041229;28;45320;-59
2022/11/06 00:43:57;;;;;;;;;7.00;7.00;;;;;11.36;72.06;101030.19;5059523;28;45212;-60
2022/11/06 00:46:22;;;;;;;;;7.00;7.00;;;;;11.31;71.85;101021.56;5060210;28;45402;-60
2022/11/06 00:48:48;;;;;;;;;8.75;8.00;;;;;11.28;72.54;101032.38;5063048;28;45626;-58
2022/11/06 00:51:39;;;;;;;;;12.25;8.25;;;;;11.29;72.13;101020.78;5080250;28;46113;-62
2022/11/06 00:54:09;;;;;;;;;4.00;3.50;;;;;11.22;72.32;101017.59;5080619;28;45440;-59
2022/11/06 00:56:34;;;;;;;;;7.00;7.00;;;;;11.28;72.20;101019.91;5080992;28;45412;-61
2022/11/06 00:59:03;;;;;;;;;8.50;6.00;;;;;11.29;72.17;101021.63;5082164;27;45560;-60
2022/11/06 01:01:36;;;;;;;;;9.00;7.00;;;;;11.25;71.98;100984.63;5061663;28;45675;-60
2022/11/06 01:04:06;;;;;;;;;10.75;7.00;;;;;11.31;72.24;100997.59;5074774;28;45447;-60
2022/11/06 01:06:40;;;;;;;;;12.00;8.75;;;;;11.28;72.21;100992.44;5078249;28;45393;-61
2022/11/06 01:09:07;;;;;;;;;4.50;4.50;;;;;11.26;71.76;101002.31;5079085;28;45310;-60
2022/11/06 01:11:35;;;;;;;;;7.75;7.00;;;;;11.21;72.50;101000.75;5078960;28;45407;-59
2022/11/06 01:14:02;;;;;;;;;11.00;7.00;;;;;11.24;72.68;100997.06;5079232;27;45254;-60
2022/11/06 01:16:28;;;;;;;;;4.50;4.50;;;;;11.26;72.19;100999.66;5072672;27;45379;-60
2022/11/06 01:18:55;;;;;;;;;8.00;7.00;;;;;11.27;72.42;100985.38;5059233;28;45265;-59
2022/11/06 01:21:27;;;;;;;;;8.50;6.50;;;;;11.31;72.36;100969.16;5064556;27;46494;-60
2022/11/06 01:23:55;;;;;;;;;10.25;7.00;;;;;11.37;71.93;100970.66;5079381;27;45512;-61
2022/11/06 01:26:21;;;;;;;;;4.50;4.50;;;;;11.40;71.88;100981.13;5079580;28;45382;-59
2022/11/06 01:28:47;;;;;;;;;7.25;7.00;;;;;11.42;71.74;100985.44;5078214;27;45327;-60
2022/11/06 01:31:16;;;;;;;;;7.00;7.00;;;;;11.44;71.64;100982.69;5060425;28;47392;-60
2022/11/06 01:33:41;;;;;;;;;6.67;5.33;;;;;11.43;71.40;100983.63;5077465;28;45374;-60
2022/11/06 01:36:11;;;;;;;;;6.50;6.25;;;;;11.49;71.70;100985.97;5046438;27;45292;-59
2022/11/06 01:38:40;;;;;;;;;7.00;4.00;;;;;11.50;71.62;100987.69;5059615;28;47099;-60
2022/11/06 01:41:06;;;;;;;;;6.00;6.00;;;;;11.53;71.20;100987.53;5057783;28;45438;-60
2022/11/06 01:43:47;;;;;;;;;7.67;7.67;;;;;11.55;71.39;100992.75;5040675;28;45363;-58
2022/11/06 01:46:13;;;;;;;;;6.67;6.33;;;;;11.52;71.78;100983.16;5059472;28;45363;-59
2022/11/06 01:48:42;;;;;;;;;5.00;5.00;;;;;11.45;71.40;100968.41;5067433;28;45506;-60
2022/11/06 01:51:08;;;;;;;;;7.33;5.33;;;;;11.53;71.61;100974.22;5079168;28;45445;-59
2022/11/06 01:53:34;;;;;;;;;7.00;6.00;;;;;11.52;71.31;100967.16;5062229;28;45418;-61
2022/11/06 01:56:03;;;;;;;;;6.00;6.00;;;;;11.48;71.41;100968.28;5079162;27;45392;-60
2022/11/06 01:58:32;;;;;;;;;4.67;4.67;;;;;11.52;71.52;100964.50;5079056;28;45441;-60
2022/11/06 02:00:58;;;;;;;;;4.67;3.33;;;;;11.54;71.19;100957.28;5093968;27;45677;-60
2022/11/06 02:03:23;;;;;;;;;3.50;3.50;;;;;11.51;71.05;100946.81;5073210;28;45465;-60
2022/11/06 02:05:49;;;;;;;;;4.67;4.67;;;;;11.58;71.32;100942.84;5077483;28;45244;-60
2022/11/06 02:08:18;;;;;;;;;7.00;4.00;;;;;11.61;71.23;100945.38;5078518;28;45332;-59
2022/11/06 02:10:44;;;;;;;;;8.33;5.33;;;;;11.62;71.05;100941.75;5078270;27;46251;-60
2022/11/06 02:13:09;;;;;;;;;6.67;6.67;;;;;11.64;71.04;100931.88;5077032;28;45310;-60
2022/11/06 02:15:47;;;;;;;;;4.00;4.00;;;;;11.67;70.88;100931.69;5077983;28;45276;-63
2022/11/06 02:18:25;;;;;;;;;8.00;4.67;;;;;11.68;70.76;100928.06;5078065;27;45288;-59
2022/11/06 02:21:24;;;;;;;;;4.00;4.00;;;;;11.68;70.53;100914.75;5077563;28;45492;-59
2022/11/06 02:23:56;;;;;;;;;3.67;3.67;;;;;11.66;70.41;100903.34;5077636;28;45312;-59
2022/11/06 02:26:44;;;;;;;;;3.67;3.67;;;;;11.67;70.40;100893.53;5078122;28;45442;-60
2022/11/06 02:29:19;;;;;;;;;7.00;6.33;;;;;11.67;70.36;100882.88;5076721;28;45361;-59
2022/11/06 02:31:46;;;;;;;;;4.67;4.67;;;;;11.64;70.65;100875.06;5077755;28;45937;-60
2022/11/06 02:34:15;;;;;;;;;3.67;3.67;;;;;11.63;70.70;100887.53;5076991;27;45872;-60
2022/11/06 02:36:53;;;;;;;;;4.67;4.67;;;;;11.63;71.43;100906.16;5059825;28;45512;-61
2022/11/06 02:39:26;;;;;;;;;7.00;4.67;;;;;11.61;70.89;100894.75;5063074;28;45486;-61
2022/11/06 02:41:54;;;;;;;;;3.00;3.00;;;;;11.63;70.45;100892.84;5057923;28;45442;-61
2022/11/06 02:44:23;;;;;;;;;8.67;7.00;;;;;11.64;70.67;100897.22;5058757;28;45501;-60
2022/11/06 02:46:57;;;;;;;;;2.33;2.00;;;;;11.67;70.30;100888.19;5059125;28;45267;-61
2022/11/06 02:49:44;;;;;;;;;9.00;3.00;;;;;11.70;70.11;100896.03;5070271;28;45438;-60
2022/11/06 02:52:28;;;;;;;;;4.67;4.00;;;;;11.66;70.22;100898.00;5059750;28;46382;-60
2022/11/06 02:55:26;;;;;;;;;7.33;5.33;;;;;11.70;70.58;100888.88;5076699;28;45356;-60
2022/11/06 02:57:58;;;;;;;;;5.33;3.33;;;;;11.74;70.32;100889.59;5050664;28;45528;-60
2022/11/06 03:00:26;;;;;;;;;2.00;2.00;;;;;11.68;70.10;100877.47;5077869;28;45254;-58
2022/11/06 03:03:14;;;;;;;;;2.00;1.00;;;;;11.73;70.19;100887.88;5058850;28;45358;-60
2022/11/06 03:05:51;;;;;;;;;8.67;3.00;;;;;11.70;70.06;100877.38;5073599;27;45558;-61
2022/11/06 03:08:38;;;;;;;;;6.67;6.67;;;;;11.65;70.31;100869.66;5077309;28;45219;-60
2022/11/06 03:11:12;;;;;;;;;5.50;5.50;;;;;11.67;70.21;100866.91;5059683;28;45514;-60
2022/11/06 03:13:59;;;;;;;;;6.33;5.00;;;;;11.63;70.29;100855.56;5077135;27;46185;-60
2022/11/06 03:16:32;;;;;;;;;7.00;6.33;;;;;11.64;70.24;100862.59;5077382;28;45350;-60
2022/11/06 03:19:19;;;;;;;;;7.00;7.00;;;;;11.62;70.30;100847.66;5076081;28;45299;-59
2022/11/06 03:22:13;;;;;;;;;3.00;3.00;;;;;11.60;70.33;100834.44;5077487;27;45530;-62
2022/11/06 03:24:51;;;;;;;;;4.67;4.67;;;;;11.58;70.21;100830.09;5058446;28;46488;-57
2022/11/06 03:27:20;;;;;;;;;7.00;6.00;;;;;11.57;70.29;100815.94;5076399;28;45435;-58
2022/11/06 03:29:51;;;;;;;;;4.00;4.00;;;;;11.56;70.28;100827.53;5076996;28;45199;-59
2022/11/06 03:32:27;;;;;;;;;4.67;4.67;;;;;11.54;70.43;100829.44;5072277;28;45391;-60
2022/11/06 03:35:13;;;;;;;;;4.00;4.00;;;;;11.50;70.42;100819.91;5076557;27;45399;-58
2022/11/06 03:37:45;;;;;;;;;6.00;3.00;;;;;11.50;70.78;100827.88;5076941;28;45477;-59
2022/11/06 03:40:16;;;;;;;;;7.33;4.00;;;;;11.45;70.10;100824.59;5066441;27;45498;-63
2022/11/06 03:42:43;;;;;;;;;5.33;4.33;;;;;11.44;70.38;100810.44;5056905;28;45197;-60
2022/11/06 03:45:16;;;;;;;;;3.33;3.33;;;;;11.43;70.32;100822.03;5076935;28;45280;-60
2022/11/06 03:47:47;;;;;;;;;3.00;2.67;;;;;11.38;70.64;100823.25;5077499;28;45250;-59
2022/11/06 03:50:23;;;;;;;;;3.50;3.50;;;;;11.32;70.66;100829.75;5077017;28;45413;-60
2022/11/06 03:52:54;;;;;;;;;6.00;6.00;;;;;11.33;70.88;100835.94;5057613;28;45445;-60
2022/11/06 03:55:29;;;;;;;;;4.00;4.00;;;;;11.35;70.93;100839.41;5076681;28;46061;-60
2022/11/06 03:58:04;;;;;;;;;5.75;5.50;;;;;11.33;70.76;100822.63;5076384;27;45212;-59
2022/11/06 04:00:33;;;;;;;;;6.00;3.50;;;;;11.27;70.75;100804.34;5076835;28;45255;-60
2022/11/06 04:03:05;;;;;;;;;6.33;4.00;;;;;11.28;71.09;100814.91;5076771;28;45410;-61
2022/11/06 04:05:42;;;;;;;;;3.00;3.00;;;;;11.23;70.76;100804.53;5070523;28;46441;-61
2022/11/06 04:14:03;;;;;;;;;6.00;4.33;;;;;11.15;70.94;100793.41;5056610;28;45352;-61
2022/11/06 04:16:41;;;;;;;;;8.00;4.50;;;;;11.18;70.94;100798.56;5037686;28;48198;-61
2022/11/06 04:19:15;;;;;;;;;6.25;4.00;;;;;11.20;70.72;100786.06;5056187;28;45475;-60
2022/11/06 04:22:18;;;;;;;;;4.00;4.00;;;;;11.20;70.97;100786.06;5056200;28;45455;-59
2022/11/06 04:27:55;;;;;;;;;3.75;3.75;;;;;11.19;70.70;100794.09;5078181;28;45160;-60
2022/11/06 04:30:20;;;;;;;;;4.33;4.33;;;;;11.20;70.58;100790.53;5075963;28;45361;-58
2022/11/06 04:33:06;;;;;;;;;6.33;4.00;;;;;11.19;70.85;100786.13;5075067;28;45239;-60
2022/11/06 04:35:43;;;;;;;;;7.00;3.25;;;;;11.16;71.04;100795.13;5058473;28;45291;-58
2022/11/06 04:38:14;;;;;;;;;7.00;4.00;;;;;11.14;70.93;100797.03;5076363;27;45389;-60
2022/11/06 04:41:01;;;;;;;;;4.67;2.67;;;;;11.14;70.92;100788.19;5057641;28;45366;-60
2022/11/06 04:43:38;;;;;;;;;4.33;4.33;;;;;11.15;71.15;100785.44;5052726;28;45456;-60
2022/11/06 04:46:08;;;;;;;;;8.33;7.67;;;;;11.05;70.90;100773.56;5074097;28;45244;-61
2022/11/06 04:48:34;;;;;;;;;8.25;7.00;;;;;11.09;71.04;100779.59;5075903;28;45482;-60
2022/11/06 04:51:02;;;;;;;;;3.25;3.00;;;;;11.10;70.58;100774.19;5075848;28;45360;-58
2022/11/06 04:53:30;;;;;;;;;4.00;2.67;;;;;11.07;70.68;100776.19;5057744;28;45350;-60
2022/11/06 04:56:05;;;;;;;;;6.00;4.00;;;;;11.08;70.92;100776.09;5075952;27;45589;-60
2022/11/06 04:58:30;;;;;;;;;5.33;5.33;;;;;11.13;70.87;100763.38;5052125;28;46836;-61
2022/11/06 05:00:55;;;;;;;;;3.33;3.33;;;;;11.14;70.32;100775.75;5074135;28;45436;-60
2022/11/06 05:03:21;;;;;;;;;4.00;4.00;;;;;11.13;70.52;100779.34;5074948;28;46012;-58
2022/11/06 05:05:46;;;;;;;;;3.00;3.00;;;;;11.05;70.87;100768.25;5076421;28;45319;-59
2022/11/06 05:08:15;;;;;;;;;3.00;3.00;;;;;10.98;70.90;100761.56;5057550;28;47190;-58
2022/11/06 05:10:41;;;;;;;;;5.50;5.50;;;;;10.94;70.81;100738.75;5074991;28;45321;-60
2022/11/06 05:13:07;;;;;;;;;5.50;2.25;;;;;11.08;70.90;100752.13;5057651;28;45381;-58
2022/11/06 05:15:32;;;;;;;;;5.50;5.50;;;;;11.07;70.74;100753.09;5076129;27;45623;-58
2022/11/06 05:17:57;;;;;;;;;5.25;5.25;;;;;10.95;71.08;100735.13;5075132;28;45954;-60
2022/11/06 05:20:23;;;;;;;;;2.00;2.00;;;;;11.01;70.59;100755.22;5074462;28;45513;-61
2022/11/06 05:22:59;;;;;;;;;7.25;3.75;;;;;11.01;70.57;100749.88;5076947;28;45320;-60
2022/11/06 05:25:38;;;;;;;;;3.50;3.50;;;;;11.03;70.70;100748.00;5060696;28;45291;-58
2022/11/06 05:28:06;;;;;;;;;6.00;3.00;;;;;11.02;70.33;100736.50;5078630;27;46044;-58
2022/11/06 05:30:32;;;;;;;;;3.75;2.50;;;;;11.01;70.54;100726.78;5078798;27;45285;-57
2022/11/06 05:32:57;;;;;;;;;6.33;4.00;;;;;11.01;70.28;100729.44;5078635;28;45599;-60
2022/11/06 05:35:23;;;;;;;;;4.33;4.00;;;;;11.02;70.48;100719.66;5074434;28;45694;-59
2022/11/06 05:37:48;;;;;;;;;8.00;3.75;;;;;11.02;70.55;100720.53;5058846;28;45950;-60
2022/11/06 05:40:13;;;;;;;;;4.25;2.50;;;;;10.98;70.18;100713.66;5058311;28;45342;-59
2022/11/06 05:42:40;;;;;;;;;4.75;2.75;;;;;10.96;70.16;100710.22;5058908;28;45482;-59
2022/11/06 05:45:07;;;;;;;;;3.50;3.50;;;;;10.96;70.29;100702.25;5040574;28;45402;-61
2022/11/06 05:47:33;;;;;;;;;7.25;6.00;;;;;11.02;70.28;100717.88;5064184;28;45488;-61
2022/11/06 05:49:58;;;;;;;;;4.00;3.75;;;;;11.00;70.41;100706.44;5059434;28;45394;-58
2022/11/06 05:52:24;;;;;;;;;7.00;3.00;;;;;11.06;70.13;100718.53;5078591;28;45409;-60
2022/11/06 05:54:49;;;;;;;;;6.33;4.33;;;;;11.04;69.91;100725.75;5078766;28;45479;-60
2022/11/06 05:57:14;;;;;;;;;7.33;4.33;;;;;10.98;70.38;100708.34;5076977;28;47380;-60
2022/11/06 05:59:40;;;;;;;;;2.75;2.75;;;;;10.94;70.38;100701.47;5060300;28;45754;-60
2022/11/06 06:02:06;;;;;;;;;3.00;3.00;;;;;11.02;69.86;100719.66;5071144;27;45698;-59
2022/11/06 06:04:31;;;;;;;;;5.75;3.00;;;;;10.91;69.98;100696.31;5029628;28;45507;-60
2022/11/06 06:06:57;;;;;;;;;2.67;2.67;;;;;11.02;69.98;100720.53;5059305;28;46019;-60
2022/11/06 06:09:22;;;;;;;;;7.00;2.00;;;;;11.03;70.03;100708.94;5074043;28;45387;-61
2022/11/06 06:11:51;;;;;;;;;4.25;4.25;;;;;11.01;70.05;100701.97;5079791;28;47269;-60
2022/11/06 06:14:17;;;;;;;;;8.25;3.00;;;;;11.05;70.04;100699.06;5079328;27;45580;-60
2022/11/06 06:16:43;;;;;;;;;3.67;3.00;;;;;11.03;70.15;100692.09;5078448;28;46057;-60
2022/11/06 06:19:08;;;;;;;;;4.33;4.33;;;;;10.96;70.33;100694.28;5077807;28;45520;-59
2022/11/06 06:21:35;;;;;;;;;10.00;5.75;;;;;10.93;70.26;100686.44;5078222;27;45385;-58
2022/11/06 06:24:01;;;;;;;;;5.67;5.33;;;;;10.90;70.38;100694.59;5076990;28;45362;-59
2022/11/06 06:26:26;;;;;;;;;4.33;4.33;;;;;10.89;70.25;100698.19;5074269;28;45974;-60
2022/11/06 06:28:52;;;;;;;;;6.00;6.00;;;;;10.84;69.95;100690.47;5089436;27;45220;-61
2022/11/06 06:31:17;;;;;;;;;6.33;4.33;;;;;10.81;70.48;100679.16;5080052;27;45570;-62
2022/11/06 06:33:42;;;;;;;;;4.00;4.00;;;;;10.82;70.14;100686.19;5098092;27;45539;-59
2022/11/06 06:36:08;;;;;;;;;2.00;2.00;;;;;10.79;70.75;100671.25;5097917;27;46431;-59
2022/11/06 06:38:34;;;;;;;;;1.33;1.33;;;;;10.80;70.78;100666.78;5072199;27;45450;-60
2022/11/06 06:41:04;;;;;;;;;4.33;2.00;;;;;10.77;70.52;100641.22;5057592;28;45272;-60
2022/11/06 06:43:30;;;;;;;;;3.00;3.00;;;;;10.76;70.65;100655.47;5057515;28;45351;-61
2022/11/06 06:46:00;;;;;;;;;3.67;3.67;;;;;10.77;70.61;100658.97;5073514;28;46312;-60
2022/11/06 06:48:26;;;;;;;;;6.25;6.25;;;;;10.78;70.55;100644.72;5077008;28;45343;-60
2022/11/06 06:50:51;;;;;;;;;11.00;6.00;;;;;10.83;69.88;100650.66;5077930;28;45442;-60
2022/11/06 06:53:17;;;;;;;;;7.00;5.50;;;;;10.83;70.47;100656.00;5074454;28;45941;-60
2022/11/06 06:55:42;;;;;;;;;4.25;4.25;;;;;10.85;69.35;100640.78;5077837;28;45921;-60
2022/11/06 06:58:09;;;;;;;;;2.00;2.00;;;;;10.78;70.47;100626.97;5077523;28;45434;-61
2022/11/06 07:00:35;;;;;;;;;4.00;3.00;;;;;10.79;70.38;100611.84;5077958;27;45333;-60
2022/11/06 07:03:01;;;;;;;;;5.25;4.25;;;;;10.85;69.95;100622.16;5059405;28;45653;-60
2022/11/06 07:05:26;;;;;;;;;7.33;4.33;;;;;10.82;69.71;100623.22;5077366;28;45401;-60
2022/11/06 07:07:51;;;;;;;;;7.67;5.33;;;;;10.83;69.78;100621.41;5074398;27;45464;-58
2022/11/06 07:10:17;;;;;;;;;7.00;6.00;;;;;10.77;69.63;100608.44;5077793;28;45330;-59
2022/11/06 07:12:42;;;;;;;;;4.00;4.00;;;;;10.86;69.78;100624.75;5070146;27;45493;-60
2022/11/06 07:15:08;;;;;;;;;5.00;4.00;;;;;10.88;69.62;100635.28;5072755;28;45520;-59
2022/11/06 07:17:34;;;;;;;;;4.75;4.75;;;;;10.87;69.46;100636.25;5071249;28;45453;-59
2022/11/06 07:19:59;;;;;;;;;6.50;5.75;;;;;10.87;69.70;100630.91;5075525;28;45242;-59
2022/11/06 07:22:26;;;;;;;;;9.00;6.00;;;;;10.92;69.21;100623.53;5071009;28;45422;-60
2022/11/06 07:24:51;;;;;;;;;5.00;5.00;;;;;10.92;69.40;100624.38;5074661;28;45463;-59
2022/11/06 07:27:17;;;;;;;;;3.00;3.00;;;;;10.93;69.47;100626.09;5075083;28;45473;-61
2022/11/06 07:29:42;;;;;;;;;7.50;4.25;;;;;10.95;69.68;100628.69;5065086;28;45337;-59
2022/11/06 07:32:08;;;;;;;;;8.25;6.00;;;;;10.96;68.90;100618.91;5071718;27;45760;-58
2022/11/06 07:34:33;;;;;;;;;6.75;4.25;;;;;11.01;69.05;100622.16;5070061;27;45872;-60
2022/11/06 07:36:59;;;;;;;;;5.25;4.00;;;;;10.99;68.97;100611.59;5077652;28;45431;-59
2022/11/06 07:39:24;;;;;;;;;3.50;3.50;;;;;10.92;69.25;100603.09;5057753;28;45386;-59
2022/11/06 07:41:50;;;;;;;;;6.25;3.75;;;;;10.94;69.12;100603.03;5070594;28;45612;-59
2022/11/06 07:44:15;;;;;;;;;6.00;6.00;;;;;10.94;69.59;100597.72;5074990;28;45480;-58
2022/11/06 07:46:41;;;;;;;;;7.50;6.25;;;;;11.01;68.82;100608.84;5058666;28;45409;-58
2022/11/06 07:49:06;;;;;;;;;5.00;5.00;;;;;10.98;69.08;100593.91;5077243;28;45413;-61
2022/11/06 07:51:31;;;;;;;;;3.00;3.00;;;;;11.04;69.25;100614.84;5074444;27;45648;-60
2022/11/06 07:53:57;;;;;;;;;4.33;4.33;;;;;11.06;69.17;100610.28;5082970;27;46155;-59
2022/11/06 07:56:22;;;;;;;;;3.67;3.67;;;;;11.08;68.81;100597.78;5086437;27;45337;-60
2022/11/06 07:58:47;;;;;;;;;5.50;5.50;;;;;11.08;69.01;100603.09;5087011;27;45342;-60
2022/11/06 08:01:16;;;;;;;;;4.67;4.67;;;;;11.09;68.97;100611.94;5089913;27;45535;-60
2022/11/06 08:03:42;;;;;;;;;4.50;4.25;;;;;11.08;68.58;100603.09;5059133;28;46358;-60
2022/11/06 08:06:07;;;;;;;;;6.50;4.25;;;;;11.09;69.11;100593.31;5092428;27;45474;-59
2022/11/06 08:08:33;;;;;;;;;4.67;4.33;;;;;11.09;68.71;100601.28;5089940;27;45382;-59
2022/11/06 08:11:06;;;;;;;;;6.25;4.25;;;;;11.09;68.87;100606.59;5095592;27;45341;-61
2022/11/06 08:13:35;;;;;;;;;4.33;2.00;;;;;11.07;68.79;100597.84;5097276;27;45379;-59
2022/11/06 08:16:05;;;;;;;;;7.00;4.25;;;;;11.09;68.72;100596.81;5090945;27;45535;-61
2022/11/06 08:18:32;;;;;;;;;6.67;4.00;;;;;11.16;68.14;100584.84;5074929;27;45604;-60
2022/11/06 08:20:57;;;;;;;;;2.50;2.50;;;;;11.16;68.23;100579.53;5057130;28;45459;-59
2022/11/06 08:23:23;;;;;;;;;4.00;3.00;;;;;11.22;67.83;100575.66;5072955;28;45577;-58
2022/11/06 08:25:48;;;;;;;;;4.75;2.75;;;;;11.27;67.83;100583.38;5057547;28;45517;-61
2022/11/06 08:28:14;;;;;;;;;3.00;3.00;;;;;11.30;68.02;100575.19;5057029;28;45522;-62
2022/11/06 08:30:39;;;;;;;;;2.00;2.00;;;;;11.31;67.88;100587.56;5076576;27;45390;-59
2022/11/06 08:33:07;;;;;;;;;7.25;3.75;;;;;11.28;68.92;100571.78;5073626;28;46049;-60
2022/11/06 08:35:36;;;;;;;;;5.50;4.00;;;;;11.24;69.47;100565.78;5069965;28;47068;-58
2022/11/06 08:38:03;;;;;;;;;4.33;3.00;;;;;11.18;69.48;100572.31;5058951;28;45466;-58
2022/11/06 08:40:28;;;;;;;;;5.00;3.25;;;;;11.16;70.03;100576.88;5073936;27;45494;-60
2022/11/06 08:43:01;;;;;;;;;8.00;5.33;;;;;11.16;70.58;100584.00;5070198;27;45468;-61
2022/11/06 08:45:27;;;;;;;;;2.33;2.33;;;;;11.05;71.61;100570.44;5076667;27;45489;-60
2022/11/06 08:47:53;;;;;;;;;3.00;3.00;;;;;11.06;71.63;100583.66;5076471;28;45381;-60
2022/11/06 08:50:18;;;;;;;;;4.50;2.75;;;;;11.03;71.41;100583.00;5074445;28;45385;-59
2022/11/06 08:52:43;;;;;;;;;7.25;4.50;;;;;10.86;71.94;100570.66;5075649;27;45426;-60
2022/11/06 08:55:09;;;;;;;;;4.33;4.33;;;;;10.84;72.22;100575.22;5079375;27;45603;-60
2022/11/06 08:57:34;;;;;;;;;8.00;3.00;;;;;10.79;72.41;100585.25;5076726;27;45422;-60
2022/11/06 09:00:00;;;;;;;;;6.00;3.33;;;;;10.72;72.68;100584.75;5095809;27;45625;-59
2022/11/06 09:02:25;;;;;;;;;2.25;2.25;;;;;10.62;73.84;100573.78;5081484;27;46629;-59
2022/11/06 09:04:50;;;;;;;;;2.25;2.25;;;;;10.66;74.22;100578.91;5089602;27;46865;-60
2022/11/06 09:07:16;;;;;;;;;4.25;3.00;;;;;10.56;74.13;100576.81;5054645;28;45504;-59
2022/11/06 09:09:41;;;;;;;;;5.00;4.25;;;;;10.63;74.38;100574.63;5059435;28;45488;-58
2022/11/06 09:12:07;;;;;;;;;6.25;6.25;;;;;10.56;75.13;100558.19;5078757;27;47093;-60
2022/11/06 09:14:34;;;;;;;;;6.75;6.00;;;;;10.61;75.03;100558.78;5079893;27;48574;-60
2022/11/06 09:16:59;;;;;;;;;5.75;3.75;;;;;10.58;75.69;100566.06;5076463;27;45354;-61
2022/11/06 09:19:25;;;;;;;;;4.25;4.25;;;;;10.44;75.95;100550.91;5061807;28;45703;-60
2022/11/06 09:21:50;;;;;;;;;3.67;3.67;;;;;10.49;75.89;100559.47;5080409;28;46108;-59
2022/11/06 09:24:15;;;;;;;;;2.75;2.75;;;;;10.45;76.16;100554.41;5080931;28;45298;-61
2022/11/06 09:26:41;;;;;;;;;6.50;4.50;;;;;10.26;76.48;100510.22;5080350;27;45236;-60
2022/11/06 09:29:06;;;;;;;;;8.00;5.00;;;;;10.38;78.59;100514.00;5080152;27;45590;-59
2022/11/06 09:31:32;;;;;;;;;6.25;6.25;;;;;10.45;78.96;100510.06;5078075;27;45921;-59
2022/11/06 09:33:57;;;;;;;;;5.00;4.25;;;;;10.30;79.22;100474.59;5079171;28;45426;-58
2022/11/06 09:36:22;;;;;;;;;6.00;5.00;;;;;10.45;78.17;100499.44;5061807;28;45459;-61
2022/11/06 09:38:48;;;;;;;;;7.25;5.00;;;;;10.40;78.72;100493.50;5079862;27;45593;-62
2022/11/06 09:42:09;;;;;;;;;4.50;3.00;;;;;10.44;79.19;100505.69;5061351;28;46255;-61
2022/11/06 09:44:55;;;;;;;;;3.75;3.00;;;;;10.46;78.14;100502.94;5028507;28;45475;-59
2022/11/06 09:47:26;;;;;;;;;12.25;5.75;;;;;10.46;79.49;100503.81;5079323;27;45284;-58
2022/11/06 09:49:55;;;;;;;;;6.00;6.00;;;;;10.50;79.51;100505.34;5079374;27;45355;-59
2022/11/06 09:52:35;;;;;;;;;6.50;6.50;;;;;10.54;79.46;100501.53;5079028;27;45413;-60
2022/11/06 09:55:14;;;;;;;;;6.00;6.00;;;;;10.54;78.59;100498.88;5060502;28;45424;-59
2022/11/06 09:57:50;;;;;;;;;9.50;6.25;;;;;10.58;78.68;100499.59;5051606;28;45515;-58
2022/11/06 10:00:16;;;;;;;;;9.75;7.25;;;;;10.60;78.91;100501.22;5058310;28;45274;-60
2022/11/06 10:02:48;;;;;;;;;6.00;6.00;;;;;10.60;78.42;100493.22;5068506;28;46123;-61
2022/11/06 10:05:22;;;;;;;;;4.50;4.50;;;;;10.57;77.58;100485.44;5077805;27;45519;-59
2022/11/06 10:07:51;;;;;;;;;4.25;2.25;;;;;10.51;78.46;100480.44;5077903;28;45258;-57
2022/11/06 10:10:21;;;;;;;;;8.00;7.00;;;;;10.48;79.37;100471.81;5077396;28;45506;-62
2022/11/06 10:13:10;;;;;;;;;6.25;6.25;;;;;10.49;78.87;100487.66;5078121;28;46324;-61
2022/11/06 10:15:47;;;;;;;;;6.00;6.00;;;;;10.43;78.52;100489.84;5077823;28;45228;-60
2022/11/06 10:18:22;;;;;;;;;6.00;6.00;;;;;10.42;80.04;100481.00;5076823;28;45439;-59
2022/11/06 10:20:52;;;;;;;;;8.25;8.00;;;;;10.43;79.72;100477.41;5059965;28;45386;-60
2022/11/06 10:23:51;;;;;;;;;6.00;5.00;;;;;10.44;80.51;100479.13;5077810;27;46401;-59
2022/11/06 10:26:38;;;;;;;;;11.00;5.00;;;;;10.41;80.22;100468.63;5078350;27;45603;-58
2022/11/06 10:29:15;;;;;;;;;5.75;3.75;;;;;10.39;80.26;100478.50;5076730;27;45306;-60
2022/11/06 10:31:59;;;;;;;;;7.00;7.00;;;;;10.37;80.56;100488.38;5059930;28;45428;-59
2022/11/06 10:34:38;;;;;;;;;7.00;7.00;;;;;10.30;79.95;100477.25;5078104;28;46383;-57
2022/11/06 10:37:12;;;;;;;;;11.25;8.00;;;;;10.25;80.63;100483.75;5077961;28;45332;-59
2022/11/06 10:39:38;;;;;;;;;9.75;9.75;;;;;10.25;82.29;100489.91;5078572;28;45354;-60
2022/11/06 10:42:16;;;;;;;;;7.50;7.00;;;;;10.20;83.04;100480.47;5078549;28;45330;-60
2022/11/06 10:44:56;;;;;;;;;6.75;6.75;;;;;10.20;82.50;100480.47;5077991;28;46214;-59
2022/11/06 10:47:26;;;;;;;;;7.00;7.00;;;;;10.20;83.28;100486.63;5077007;28;45441;-59
2022/11/06 10:49:58;;;;;;;;;7.00;6.50;;;;;10.12;83.55;100485.34;5077837;28;45497;-59
2022/11/06 10:52:38;;;;;;;;;11.00;9.25;;;;;10.17;83.65;100472.69;5078101;28;45523;-59
2022/11/06 10:55:12;;;;;;;;;6.25;6.25;;;;;10.16;83.49;100460.34;5092506;27;46782;-60
2022/11/06 10:57:56;;;;;;;;;11.00;10.50;;;;;10.17;82.76;100454.94;5077745;27;45329;-59
2022/11/06 11:00:22;;;;;;;;;12.25;9.50;;;;;10.20;84.16;100445.91;5077817;28;45548;-61
2022/11/06 11:02:54;;;;;;;;;7.00;7.00;;;;;10.19;82.06;100452.19;5078325;27;45389;-60
2022/11/06 11:05:22;;;;;;;;;7.50;7.50;;;;;10.21;81.54;100444.97;5077447;28;45806;-57
2022/11/06 11:07:49;;;;;;;;;7.00;6.00;;;;;10.18;85.76;100435.38;5059925;28;45530;-59
2022/11/06 11:10:26;;;;;;;;;8.00;7.00;;;;;10.21;85.37;100439.66;5077373;28;45383;-61
2022/11/06 11:12:53;;;;;;;;;10.25;9.50;;;;;10.20;84.06;100438.81;5078916;28;45418;-61
2022/11/06 11:15:21;;;;;;;;;8.00;7.00;;;;;10.15;85.41;100437.31;5077525;27;45467;-59
2022/11/06 11:18:09;;;;;;;;;8.00;8.00;;;;;10.06;86.89;100430.75;5078113;28;45345;-61
2022/11/06 11:20:36;;;;;;;;;9.75;8.00;;;;;10.02;87.33;100435.38;5077920;27;45340;-58
2022/11/06 11:23:23;;;;;;;;;12.00;7.25;;;;;10.08;84.77;100425.34;5079323;28;45332;-58
2022/11/06 11:25:54;;;;;;;;;12.25;10.25;;;;;10.09;85.71;100416.44;5077836;27;45968;-62
2022/11/06 11:28:26;;;;;;;;;13.25;9.75;;;;;10.07;84.21;100410.34;5080906;28;45287;-59
2022/11/06 11:30:55;;;;;;;;;15.50;8.75;;;;;10.12;84.63;100408.28;5081782;28;45276;-60
2022/11/06 11:33:25;;;;;;;;;14.50;12.25;;;;;10.09;84.27;100398.69;5079545;28;45231;-59
2022/11/06 11:35:52;;;;;;;;;12.50;8.25;;;;;10.12;84.59;100390.53;5077779;27;46322;-59
2022/11/06 11:38:20;;;;;;;;;8.00;7.75;;;;;10.15;83.70;100381.53;5078144;27;45331;-57
2022/11/06 11:40:46;;;;;;;;;8.25;5.50;;;;;10.14;85.37;100377.16;5076660;28;45457;-62
2022/11/06 11:43:31;;;;;;;;;14.50;11.00;;;;;10.13;84.15;100383.41;5059234;28;45378;-60
2022/11/06 11:46:04;;;;;;;;;10.25;7.75;;;;;10.16;83.78;100380.59;5076635;28;45436;-58
2022/11/06 11:48:50;;;;;;;;;9.75;9.75;;;;;10.10;85.28;100368.50;5077135;27;45524;-61